Flight Track Log - Related Links

Times and Time Zones

All times are in EDT time to prevent confusion due to time zone crossing. See the EJA700 flight status page for this flight to view local times or setup timezone preferences in your user account.

Time Position Orientation Groundspeed Altitude Reporting Facility
EDT Latitude Longitude Course Direction KTS MPH feet Rate Location/Type
Sun 05:13:05 PM 28.4833 -81.3167 353° North 214 246 3,400  Level Orlando TRACON
Sun 05:14:05 PM 28.5500 -81.3000 12° North 273 314 6,600 1,955 Climbing Orlando TRACON
Sun 05:16:03 PM 28.6956 -81.3258 351° North 292 336 9,200 1,787 Climbing Jacksonville Center
Sun 05:17:03 PM 28.7792 -81.3364 354° North 292 336 11,900 2,700 Climbing Jacksonville Center
Sun 05:18:03 PM 28.8733 -81.3539 351° North 316 364 14,600 2,900 Climbing Jacksonville Center
Sun 05:19:03 PM 28.9756 -81.3689 353° North 342 394 17,700 3,100 Climbing Jacksonville Center
Sun 05:20:03 PM 29.0739 -81.3839 352° North 353 406 20,800 2,600 Climbing Jacksonville Center
Sun 05:21:03 PM 29.1764 -81.3967 354° North 358 412 22,900 1,100 Climbing Jacksonville Center
Sun 05:22:03 PM 29.2892 -81.4117 353° North 381 438 23,000 700 Climbing Jacksonville Center
Sun 05:23:03 PM 29.4167 -81.4217 356° North 420 483 24,300 1,600 Climbing Jacksonville Center
Sun 05:24:03 PM 29.5317 -81.4342 355° North 425 489 26,200 1,900 Climbing Jacksonville Center
Sun 05:25:03 PM 29.6486 -81.4419 357° North 420 483 28,100 1,900 Climbing Jacksonville Center
Sun 05:26:03 PM 29.7617 -81.4547 354° North 420 483 30,000 1,450 Climbing Jacksonville Center
Sun 05:27:03 PM 29.8783 -81.4531 North 415 478 31,000 500 Climbing Jacksonville Center
Sun 05:28:03 PM 30.0036 -81.4511 North 420 483 31,000  Level Jacksonville Center
Sun 05:29:03 PM 30.1289 -81.4492 North 437 503 31,000  Level Jacksonville Center
Sun 05:30:03 PM 30.2561 -81.4472 North 442 509 31,000  Level Jacksonville Center
Sun 05:31:03 PM 30.3794 -81.4478 360° North 442 509 31,000  Level Jacksonville Center
Sun 05:32:03 PM 30.5067 -81.4458 North 442 509 31,000 350 Level Jacksonville Center
Sun 05:33:03 PM 30.6278 -81.4442 North 442 509 31,700 850 Climbing Jacksonville Center
Sun 05:34:03 PM 30.7531 -81.4422 North 442 509 32,700 1,000 Climbing Jacksonville Center
Sun 05:35:03 PM 30.8764 -81.4428 360° North 442 509 33,700 1,000 Climbing Jacksonville Center
Sun 05:36:03 PM 30.9972 -81.4408 North 442 509 34,700 1,000 Climbing Jacksonville Center
Sun 05:37:03 PM 31.1164 -81.4414 360° North 437 503 35,700 800 Climbing Jacksonville Center
Sun 05:38:03 PM 31.2375 -81.4394 North 437 503 36,300 600 Climbing Jacksonville Center
Sun 05:39:03 PM 31.3622 -81.4061 13° North 443 510 36,900 350 Climbing Jacksonville Center
Sun 05:40:03 PM 31.4997 -81.3697 13° North 450 518 37,000 50 Climbing Jacksonville Center
Sun 05:41:03 PM 31.6289 -81.3383 12° North 463 533 37,000  Level Jacksonville Center
Sun 05:42:03 PM 31.7453 -81.3069 13° North 469 540 37,000  Level Jacksonville Center
Sun 05:43:03 PM 31.8742 -81.2706 13° North 469 540 37,000  Level Jacksonville Center
Sun 05:44:03 PM 32.0011 -81.2342 14° North 469 540 37,000  Level Jacksonville Center
Sun 05:45:03 PM 32.1211 -81.1411 33° Northeast 479 551 37,000  Level Jacksonville Center
Sun 05:46:03 PM 32.2444 -81.0111 42° Northeast 517 595 37,000 150 Level Jacksonville Center
Sun 05:47:03 PM 32.3408 -80.9033 43° Northeast 534 615 37,300 400 Climbing Jacksonville Center
Sun 05:48:03 PM 32.4475 -80.7828 44° Northeast 534 615 37,800 550 Climbing Jacksonville Center
Sun 05:49:03 PM 32.5539 -80.6644 43° Northeast 529 609 38,400 500 Climbing Jacksonville Center
Sun 05:50:03 PM 32.6625 -80.5433 43° Northeast 529 609 38,800 300 Climbing Jacksonville Center
Sun 05:51:03 PM 32.7686 -80.4222 44° Northeast 524 603 39,000 100 Climbing Jacksonville Center
Sun 05:52:03 PM 32.8789 -80.2978 43° Northeast 524 603 39,000  Level Jacksonville Center
Sun 05:53:03 PM 33.0056 -80.1606 42° Northeast 549 632 39,000  Level Jacksonville Center
Sun 05:54:03 PM 33.0992 -80.0508 44° Northeast 535 616 39,000  Level Jacksonville Center
Sun 05:55:03 PM 33.2047 -79.9283 44° Northeast 535 616 39,000  Level Jacksonville Center
Sun 05:56:03 PM 33.3247 -79.7953 43° Northeast 535 616 39,000  Level Jacksonville Center
Sun 05:57:03 PM 33.4322 -79.6719 44° Northeast 540 621 39,000  Level Jacksonville Center
Sun 05:58:03 PM 33.5375 -79.5461 45° Northeast 540 621 39,000  Level Jacksonville Center
Sun 05:59:03 PM 33.6467 -79.4222 43° Northeast 540 621 39,000  Level Jacksonville Center
Sun 06:00:03 PM 33.7356 -79.3164 45° Northeast 540 621 39,000  Level Jacksonville Center
Sun 06:01:03 PM 33.8428 -79.1944 43° Northeast 525 604 39,000  Level Jacksonville Center
Sun 06:02:03 PM 33.9497 -79.0697 44° Northeast 520 598 39,000  Level Jacksonville Center
Sun 06:03:42 PM 34.1228 -78.8681 44° Northeast 503 579 39,000  Level Washington Center
Sun 06:04:43 PM 34.2283 -78.7442 44° Northeast 509 586 39,000  Level Washington Center
Sun 06:05:41 PM 34.3381 -78.6200 43° Northeast 516 594 39,000  Level Washington Center
Sun 06:06:42 PM 34.4514 -78.5058 40° Northeast 521 600 39,000  Level Washington Center
Sun 06:07:42 PM 34.5542 -78.3961 41° Northeast 528 608 39,000  Level Washington Center
Sun 06:08:41 PM 34.6800 -78.2742 39° Northeast 528 608 39,000  Level Washington Center
Sun 06:09:41 PM 34.7969 -78.1744 35° Northeast 528 608 39,000  Level Washington Center
Sun 06:10:42 PM 34.9161 -78.0742 35° Northeast 522 601 39,000  Level Washington Center
Sun 06:11:43 PM 35.0367 -77.9817 32° Northeast 517 595 39,000  Level Washington Center
Sun 06:12:41 PM 35.1594 -77.8939 30° Northeast 506 582 39,000  Level Washington Center
Sun 06:13:42 PM 35.2992 -77.7958 30° Northeast 506 582 39,000  Level Washington Center
Sun 06:14:43 PM 35.4239 -77.7075 30° Northeast 516 594 39,000  Level Washington Center
Sun 06:15:43 PM 35.5506 -77.6164 30° Northeast 516 594 39,000  Level Washington Center
Sun 06:16:41 PM 35.6753 -77.5275 30° Northeast 516 594 39,000  Level Washington Center
Sun 06:17:42 PM 35.7997 -77.4383 30° Northeast 516 594 39,000  Level Washington Center
Sun 06:18:42 PM 35.9219 -77.3489 31° Northeast 516 594 39,000  Level Washington Center
Sun 06:19:42 PM 36.0486 -77.2567 30° Northeast 516 594 39,000  Level Washington Center
Sun 06:20:43 PM 36.1497 -77.1842 30° Northeast 516 594 39,000  Level Washington Center
Sun 06:21:41 PM 36.2844 -77.0814 32° Northeast 516 594 39,000  Level Washington Center
Sun 06:22:42 PM 36.4108 -76.9908 30° Northeast 516 594 39,000  Level Washington Center
Sun 06:23:42 PM 36.5369 -76.8947 31° Northeast 516 594 39,000  Level Washington Center
Sun 06:24:43 PM 36.6611 -76.8036 30° Northeast 516 594 39,000  Level Washington Center
Sun 06:25:41 PM 36.7850 -76.7069 32° Northeast 522 601 39,000  Level Washington Center
Sun 06:26:41 PM 36.9089 -76.6153 31° Northeast 517 595 39,000  Level Washington Center
Sun 06:27:42 PM 37.0328 -76.5206 31° Northeast 517 595 39,000  Level Washington Center
Sun 06:28:42 PM 37.1586 -76.4258 31° Northeast 517 595 39,000  Level Washington Center
Sun 06:29:43 PM 37.2992 -76.3203 31° Northeast 525 604 39,000  Level Washington Center
Sun 06:30:43 PM 37.4228 -76.2219 32° Northeast 525 604 39,000 -51 Level Washington Center
Sun 06:31:41 PM 37.5419 -76.1419 28° Northeast 525 604 38,900  Descending Washington Center
Sun 06:32:42 PM 37.6594 -76.0300 37° Northeast 525 604 39,000 49 Climbing Washington Center
Sun 06:33:43 PM 37.7892 -75.8967 39° Northeast 530 610 39,000  Level Washington Center
Sun 06:34:41 PM 37.8997 -75.7969 35° Northeast 537 618 39,000  Level Washington Center
Sun 06:35:42 PM 38.0167 -75.6814 38° Northeast 537 618 39,000  Level Washington Center
Sun 06:36:43 PM 38.1419 -75.5522 39° Northeast 527 606 39,000  Level Washington Center
Sun 06:37:43 PM 38.2544 -75.4489 36° Northeast 532 612 39,000  Level Washington Center
Sun 06:38:41 PM 38.3833 -75.3214 38° Northeast 532 612 39,000  Level Washington Center
Sun 06:39:42 PM 38.4997 -75.2017 39° Northeast 532 612 39,000  Level Washington Center
Sun 06:40:42 PM 38.6183 -75.0894 36° Northeast 532 612 39,000  Level Washington Center
Sun 06:41:43 PM 38.7386 -74.9689 38° Northeast 537 618 39,000  Level Washington Center
Sun 06:42:43 PM 38.8547 -74.8533 38° Northeast 537 618 39,000  Level Washington Center
Sun 06:43:41 PM 38.9728 -74.7344 38° Northeast 537 618 39,000  Level Washington Center
Sun 06:44:42 PM 39.0906 -74.6156 38° Northeast 537 618 39,000  Level Washington Center
Sun 06:45:43 PM 39.2083 -74.4961 38° Northeast 537 618 39,000  Level Washington Center
Sun 06:46:41 PM 39.3239 -74.3761 39° Northeast 537 618 39,000  Level Washington Center
Sun 06:47:42 PM 39.4331 -74.2669 38° Northeast 542 624 39,000  Level Washington Center
Sun 06:49:35 PM 39.6411 -74.0508 39° Northeast 540 621 39,000  Level Boston Center
Sun 06:50:36 PM 39.7581 -73.9306 38° Northeast 539 620 39,000  Level Boston Center
Sun 06:51:37 PM 39.8975 -73.7856 39° Northeast 537 618 39,000  Level Boston Center
Sun 06:52:39 PM 40.0122 -73.6647 39° Northeast 535 616 39,000 -49 Level Boston Center
Sun 06:53:40 PM 40.1275 -73.5506 37° Northeast 528 608 38,900 -1,289 Descending Boston Center
Sun 06:54:40 PM 40.2447 -73.4258 39° Northeast 535 616 36,400 -2,380 Descending Boston Center
Sun 06:55:41 PM 40.3617 -73.2986 40° Northeast 543 625 34,100 -2,226 Descending Boston Center
Sun 06:56:44 PM 40.4828 -73.1711 39° Northeast 553 636 31,800 -2,226 Descending Boston Center
Sun 06:57:45 PM 40.6064 -73.0397 39° Northeast 568 654 29,500 -2,430 Descending Boston Center
Sun 06:58:45 PM 40.7494 -72.8842 39° Northeast 571 657 26,900 -2,479 Descending Boston Center
Sun 06:59:46 PM 40.8681 -72.7592 39° Northeast 558 642 24,500 -2,311 Descending Boston Center
Sun 07:00:47 PM 40.9861 -72.6311 39° Northeast 555 639 22,200 -2,064 Descending Boston Center
Sun 07:01:51 PM 41.1039 -72.5025 39° Northeast 553 636 20,200 -1,016 Descending Boston Center
Sun 07:02:51 PM 41.2375 -72.4136 27° Northeast 548 631 20,100 -50 Descending Boston Center
Sun 07:03:52 PM 41.3958 -72.3450 18° North 535 616 20,100 -942 Level Boston Center
Sun 07:04:52 PM 41.5319 -72.2842 18° North 505 581 18,200 -2,298 Descending Boston Center
Sun 07:05:26 PM 41.5964 -72.2558 18° North 462 532 16,500 -2,924 Descending Boston Center
Sun 07:06:51 PM 41.7400 -72.1942 18° North 380 437 12,400 -3,033 Descending Boston Center
Sun 07:06:57 PM 41.7544 -72.1869 20° North 387 445 11,900 -1,254 Descending Boston Center
Sun 07:07:58 PM 41.8475 -72.1464 18° North 349 402 11,000 -887 Descending Boston Center
Sun 07:08:52 PM 41.9261 -72.1122 18° North 331 381 10,200 -900 Descending Boston Center
Sun 07:08:58 PM 41.9342 -72.1081 21° North 333 383 10,100 -98 Descending Boston Center
Sun 07:09:53 PM 42.0139 -72.0708 19° North 332 382 10,100 -97 Level Boston Center
Sun 07:10:00 PM 42.0206 -72.0686 14° North 333 383 10,000  Descending Boston Center
Sun 07:10:51 PM 42.0972 -72.0303 20° North 322 371 10,100 100 Climbing Boston Center
Sun 07:11:00 PM 42.1103 -72.0208 28° Northeast 328 377 10,100 -1,672 Level Boston Center
Sun 07:11:52 PM 42.1669 -71.9592 39° Northeast 306 352 8,400 -1,967 Descending Boston Center
Sun 07:12:01 PM 42.1781 -71.9486 35° Northeast 312 359 8,100 -1,973 Descending Boston Center
Sun 07:13:05 PM 42.2381 -71.8836 39° Northeast 279 321 6,000 -1,488 Descending Boston Center
Sun 07:14:06 PM 42.2967 -71.8178 40° Northeast 257 296 5,000 -443 Descending Boston Center
Sun 07:15:07 PM 42.3522 -71.7544 40° Northeast 260 299 5,100 49 Climbing Boston Center
Sun 07:16:08 PM 42.3972 -71.6714 54° Northeast 287 330 5,100 -397 Level Boston Center
Sun 07:17:08 PM 42.4339 -71.5831 61° Northeast 274 315 4,300 -919 Descending Boston Center
Sun 07:18:12 PM 42.4714 -71.4897 61° Northeast 265 305 3,200 -629 Descending Boston Center
Sun 07:19:12 PM 42.4981 -71.4050 67° East 250 288 3,000 -550 Descending Boston Center
Sun 07:20:12 PM 42.5061 -71.3192 83° East 236 272 2,100 -645 Descending Boston Center
Sun 07:21:13 PM 42.5067 -71.2572 89° East 160 184 1,700 -192 Descending Boston Center
Sun 07:22:17 PM 42.5000 -71.2000 99° East 152 175 1,700  Level KA90
Sun 07:23:18 PM 42.4667 -71.1667 144° Southeast 164 189 1,700 -157 Level KA90
Sun 07:24:12 PM 42.4500 -71.2000 236° Southwest 129 148 1,400 -600 Descending KA90
Sun 07:25:18 PM 42.4667 -71.2500 294° West 133 153 500 -818 Descending KA90
Sun 07:28:00 PM 42.4667 -71.2833 285° West  Level FlightAware Approximate

Login

Don't have an account? Register now (free) for customized features, flight alerts, and more!